sensor_id;sensor_type;location;lat;lon;timestamp;temperature;humidity
4279;DHT22;2153;47.744;10.580;2023-02-23T00:00:24;6.10;99.90
4279;DHT22;2153;47.744;10.580;2023-02-23T00:02:54;5.90;99.90
4279;DHT22;2153;47.744;10.580;2023-02-23T00:05:23;5.90;99.90
4279;DHT22;2153;47.744;10.580;2023-02-23T00:07:50;5.90;99.90
4279;DHT22;2153;47.744;10.580;2023-02-23T00:10:17;5.90;99.90
4279;DHT22;2153;47.744;10.580;2023-02-23T00:12:46;5.90;99.90
4279;DHT22;2153;47.744;10.580;2023-02-23T00:15:15;5.90;99.90
4279;DHT22;2153;47.744;10.580;2023-02-23T00:17:42;6.00;99.90
4279;DHT22;2153;47.744;10.580;2023-02-23T00:20:12;6.00;99.90
4279;DHT22;2153;47.744;10.580;2023-02-23T00:22:41;6.10;99.90
4279;DHT22;2153;47.744;10.580;2023-02-23T00:25:08;6.00;99.90
4279;DHT22;2153;47.744;10.580;2023-02-23T00:27:36;6.00;99.90
4279;DHT22;2153;47.744;10.580;2023-02-23T00:30:09;6.00;99.90
4279;DHT22;2153;47.744;10.580;2023-02-23T00:32:38;5.90;99.90
4279;DHT22;2153;47.744;10.580;2023-02-23T00:35:06;5.90;99.90
4279;DHT22;2153;47.744;10.580;2023-02-23T00:37:36;5.80;99.90
4279;DHT22;2153;47.744;10.580;2023-02-23T00:40:04;5.80;99.90
4279;DHT22;2153;47.744;10.580;2023-02-23T00:42:32;5.90;99.90
4279;DHT22;2153;47.744;10.580;2023-02-23T00:45:00;5.70;99.90
4279;DHT22;2153;47.744;10.580;2023-02-23T00:47:35;5.60;99.90
4279;DHT22;2153;47.744;10.580;2023-02-23T00:50:04;5.40;99.90
4279;DHT22;2153;47.744;10.580;2023-02-23T00:52:32;5.40;99.90
4279;DHT22;2153;47.744;10.580;2023-02-23T00:54:58;5.50;99.90
4279;DHT22;2153;47.744;10.580;2023-02-23T00:57:25;5.50;99.90
4279;DHT22;2153;47.744;10.580;2023-02-23T00:59:52;5.70;99.90
4279;DHT22;2153;47.744;10.580;2023-02-23T01:02:18;5.70;99.90
4279;DHT22;2153;47.744;10.580;2023-02-23T01:04:45;5.80;99.90
4279;DHT22;2153;47.744;10.580;2023-02-23T01:07:13;5.80;99.90
4279;DHT22;2153;47.744;10.580;2023-02-23T01:09:40;5.90;99.90
4279;DHT22;2153;47.744;10.580;2023-02-23T01:12:07;5.90;99.90
4279;DHT22;2153;47.744;10.580;2023-02-23T01:14:34;5.90;99.90
4279;DHT22;2153;47.744;10.580;2023-02-23T01:17:02;6.00;99.90
4279;DHT22;2153;47.744;10.580;2023-02-23T01:19:28;5.90;99.90
4279;DHT22;2153;47.744;10.580;2023-02-23T01:21:58;5.90;99.90
4279;DHT22;2153;47.744;10.580;2023-02-23T01:24:28;5.90;99.90
4279;DHT22;2153;47.744;10.580;2023-02-23T01:26:54;5.90;99.90
4279;DHT22;2153;47.744;10.580;2023-02-23T01:29:21;6.00;99.90
4279;DHT22;2153;47.744;10.580;2023-02-23T01:31:49;6.00;99.90
4279;DHT22;2153;47.744;10.580;2023-02-23T01:34:17;6.10;99.90
4279;DHT22;2153;47.744;10.580;2023-02-23T01:36:44;6.10;99.90
4279;DHT22;2153;47.744;10.580;2023-02-23T01:39:13;6.10;99.90
4279;DHT22;2153;47.744;10.580;2023-02-23T01:41:42;6.10;99.90
4279;DHT22;2153;47.744;10.580;2023-02-23T01:47:08;6.20;99.90
4279;DHT22;2153;47.744;10.580;2023-02-23T01:49:35;6.20;99.90
4279;DHT22;2153;47.744;10.580;2023-02-23T01:52:05;6.20;99.90
4279;DHT22;2153;47.744;10.580;2023-02-23T01:54:37;6.30;99.90
4279;DHT22;2153;47.744;10.580;2023-02-23T01:57:08;6.30;99.90
4279;DHT22;2153;47.744;10.580;2023-02-23T01:59:39;6.40;99.90
4279;DHT22;2153;47.744;10.580;2023-02-23T02:02:07;6.40;99.90
4279;DHT22;2153;47.744;10.580;2023-02-23T02:04:35;6.40;99.90
4279;DHT22;2153;47.744;10.580;2023-02-23T02:07:08;6.50;99.90
4279;DHT22;2153;47.744;10.580;2023-02-23T02:09:35;6.50;99.90
4279;DHT22;2153;47.744;10.580;2023-02-23T02:12:07;6.60;99.90
4279;DHT22;2153;47.744;10.580;2023-02-23T02:14:36;6.70;99.90
4279;DHT22;2153;47.744;10.580;2023-02-23T02:17:14;6.80;99.90
4279;DHT22;2153;47.744;10.580;2023-02-23T02:26:17;6.90;99.90
4279;DHT22;2153;47.744;10.580;2023-02-23T02:32:11;6.90;99.90
4279;DHT22;2153;47.744;10.580;2023-02-23T02:37:57;7.00;99.90
4279;DHT22;2153;47.744;10.580;2023-02-23T02:40:32;7.00;99.90
4279;DHT22;2153;47.744;10.580;2023-02-23T02:43:09;7.00;99.90
4279;DHT22;2153;47.744;10.580;2023-02-23T02:45:47;6.90;99.90
4279;DHT22;2153;47.744;10.580;2023-02-23T02:48:22;6.90;99.90
4279;DHT22;2153;47.744;10.580;2023-02-23T02:50:54;6.90;99.90
4279;DHT22;2153;47.744;10.580;2023-02-23T02:53:27;6.90;99.90
4279;DHT22;2153;47.744;10.580;2023-02-23T02:55:58;6.90;99.90
4279;DHT22;2153;47.744;10.580;2023-02-23T02:58:30;6.90;99.90
4279;DHT22;2153;47.744;10.580;2023-02-23T03:01:05;6.90;99.90
4279;DHT22;2153;47.744;10.580;2023-02-23T03:03:49;6.90;99.90
4279;DHT22;2153;47.744;10.580;2023-02-23T03:06:44;6.90;99.90
4279;DHT22;2153;47.744;10.580;2023-02-23T03:09:35;6.90;99.90
4279;DHT22;2153;47.744;10.580;2023-02-23T03:12:32;6.90;99.90
4279;DHT22;2153;47.744;10.580;2023-02-23T03:15:35;6.90;99.90
4279;DHT22;2153;47.744;10.580;2023-02-23T03:18:36;6.90;99.90
4279;DHT22;2153;47.744;10.580;2023-02-23T03:21:26;6.90;99.90
4279;DHT22;2153;47.744;10.580;2023-02-23T03:24:19;6.80;99.90
4279;DHT22;2153;47.744;10.580;2023-02-23T03:27:14;6.80;99.90
4279;DHT22;2153;47.744;10.580;2023-02-23T03:30:07;6.80;99.90
4279;DHT22;2153;47.744;10.580;2023-02-23T03:32:56;6.80;99.90
4279;DHT22;2153;47.744;10.580;2023-02-23T03:35:47;6.80;99.90
4279;DHT22;2153;47.744;10.580;2023-02-23T03:38:35;6.80;99.90
4279;DHT22;2153;47.744;10.580;2023-02-23T03:41:23;6.80;99.90
4279;DHT22;2153;47.744;10.580;2023-02-23T03:44:16;6.70;99.90
4279;DHT22;2153;47.744;10.580;2023-02-23T03:47:03;6.70;99.90
4279;DHT22;2153;47.744;10.580;2023-02-23T03:49:49;6.70;99.90
4279;DHT22;2153;47.744;10.580;2023-02-23T03:52:39;6.70;99.90
4279;DHT22;2153;47.744;10.580;2023-02-23T03:55:28;6.70;99.90
4279;DHT22;2153;47.744;10.580;2023-02-23T03:58:17;6.70;99.90
4279;DHT22;2153;47.744;10.580;2023-02-23T04:01:06;6.70;99.90
4279;DHT22;2153;47.744;10.580;2023-02-23T04:03:52;6.80;99.90
4279;DHT22;2153;47.744;10.580;2023-02-23T04:06:42;6.70;99.90
4279;DHT22;2153;47.744;10.580;2023-02-23T04:09:27;6.70;99.90
4279;DHT22;2153;47.744;10.580;2023-02-23T04:12:14;6.70;99.90
4279;DHT22;2153;47.744;10.580;2023-02-23T04:15:07;6.70;99.90
4279;DHT22;2153;47.744;10.580;2023-02-23T04:17:36;6.70;99.90
4279;DHT22;2153;47.744;10.580;2023-02-23T04:20:03;6.70;99.90
4279;DHT22;2153;47.744;10.580;2023-02-23T04:22:31;6.70;99.90
4279;DHT22;2153;47.744;10.580;2023-02-23T04:24:59;6.70;99.90
4279;DHT22;2153;47.744;10.580;2023-02-23T04:27:26;6.60;99.90
4279;DHT22;2153;47.744;10.580;2023-02-23T04:29:53;6.50;99.90
4279;DHT22;2153;47.744;10.580;2023-02-23T04:32:20;6.40;99.90
4279;DHT22;2153;47.744;10.580;2023-02-23T04:34:48;6.30;99.90
4279;DHT22;2153;47.744;10.580;2023-02-23T04:37:15;6.30;99.90
4279;DHT22;2153;47.744;10.580;2023-02-23T04:39:41;6.30;99.90
4279;DHT22;2153;47.744;10.580;2023-02-23T04:42:13;6.30;99.90
4279;DHT22;2153;47.744;10.580;2023-02-23T04:44:39;6.30;99.90
4279;DHT22;2153;47.744;10.580;2023-02-23T04:47:06;6.30;99.90
4279;DHT22;2153;47.744;10.580;2023-02-23T04:49:33;6.30;99.90
4279;DHT22;2153;47.744;10.580;2023-02-23T04:52:01;6.30;99.90
4279;DHT22;2153;47.744;10.580;2023-02-23T04:54:28;6.30;99.90
4279;DHT22;2153;47.744;10.580;2023-02-23T04:56:54;6.30;99.90
4279;DHT22;2153;47.744;10.580;2023-02-23T04:59:21;6.30;99.90
4279;DHT22;2153;47.744;10.580;2023-02-23T05:01:48;6.30;99.90
4279;DHT22;2153;47.744;10.580;2023-02-23T05:04:14;6.30;99.90
4279;DHT22;2153;47.744;10.580;2023-02-23T05:06:41;6.30;99.90
4279;DHT22;2153;47.744;10.580;2023-02-23T05:09:09;6.30;99.90
4279;DHT22;2153;47.744;10.580;2023-02-23T05:11:36;6.30;99.90
4279;DHT22;2153;47.744;10.580;2023-02-23T05:14:03;6.30;99.90
4279;DHT22;2153;47.744;10.580;2023-02-23T05:16:30;6.30;99.90
4279;DHT22;2153;47.744;10.580;2023-02-23T05:18:56;6.30;99.90
4279;DHT22;2153;47.744;10.580;2023-02-23T05:21:23;6.30;99.90
4279;DHT22;2153;47.744;10.580;2023-02-23T05:23:50;6.30;99.90
4279;DHT22;2153;47.744;10.580;2023-02-23T05:26:18;6.30;99.90
4279;DHT22;2153;47.744;10.580;2023-02-23T05:28:45;6.30;99.90
4279;DHT22;2153;47.744;10.580;2023-02-23T05:31:12;6.30;99.90
4279;DHT22;2153;47.744;10.580;2023-02-23T05:33:38;6.30;99.90
4279;DHT22;2153;47.744;10.580;2023-02-23T05:36:08;6.30;99.90
4279;DHT22;2153;47.744;10.580;2023-02-23T05:38:35;6.30;99.90
4279;DHT22;2153;47.744;10.580;2023-02-23T05:41:04;6.30;99.90
4279;DHT22;2153;47.744;10.580;2023-02-23T05:43:33;6.30;99.90
4279;DHT22;2153;47.744;10.580;2023-02-23T05:46:00;6.30;99.90
4279;DHT22;2153;47.744;10.580;2023-02-23T05:48:27;6.30;99.90
4279;DHT22;2153;47.744;10.580;2023-02-23T05:50:54;6.30;99.90
4279;DHT22;2153;47.744;10.580;2023-02-23T05:53:20;6.30;99.90
4279;DHT22;2153;47.744;10.580;2023-02-23T05:55:47;6.30;99.90
4279;DHT22;2153;47.744;10.580;2023-02-23T05:58:14;6.30;99.90
4279;DHT22;2153;47.744;10.580;2023-02-23T06:00:43;6.30;99.90
4279;DHT22;2153;47.744;10.580;2023-02-23T06:03:09;6.30;99.90
4279;DHT22;2153;47.744;10.580;2023-02-23T06:05:36;6.40;99.90
4279;DHT22;2153;47.744;10.580;2023-02-23T06:08:03;6.40;99.90
4279;DHT22;2153;47.744;10.580;2023-02-23T06:10:30;6.40;99.90
4279;DHT22;2153;47.744;10.580;2023-02-23T06:12:56;6.40;99.90
4279;DHT22;2153;47.744;10.580;2023-02-23T06:15:23;6.40;99.90
4279;DHT22;2153;47.744;10.580;2023-02-23T06:17:51;6.40;99.90
4279;DHT22;2153;47.744;10.580;2023-02-23T06:20:18;6.40;99.90
4279;DHT22;2153;47.744;10.580;2023-02-23T06:22:45;6.40;99.90
4279;DHT22;2153;47.744;10.580;2023-02-23T06:25:12;6.40;99.90
4279;DHT22;2153;47.744;10.580;2023-02-23T06:27:39;6.40;99.90
4279;DHT22;2153;47.744;10.580;2023-02-23T06:30:07;6.40;99.90
4279;DHT22;2153;47.744;10.580;2023-02-23T06:32:35;6.40;99.90
4279;DHT22;2153;47.744;10.580;2023-02-23T06:35:04;6.40;99.90
4279;DHT22;2153;47.744;10.580;2023-02-23T06:37:31;6.50;99.90
4279;DHT22;2153;47.744;10.580;2023-02-23T06:39:58;6.50;99.90
4279;DHT22;2153;47.744;10.580;2023-02-23T06:42:25;6.60;99.90
4279;DHT22;2153;47.744;10.580;2023-02-23T06:44:52;6.60;99.90
4279;DHT22;2153;47.744;10.580;2023-02-23T06:47:19;6.60;99.90
4279;DHT22;2153;47.744;10.580;2023-02-23T06:49:45;6.60;99.90
4279;DHT22;2153;47.744;10.580;2023-02-23T06:52:14;6.70;99.90
4279;DHT22;2153;47.744;10.580;2023-02-23T06:54:41;6.70;99.90
4279;DHT22;2153;47.744;10.580;2023-02-23T06:57:08;6.80;99.90
4279;DHT22;2153;47.744;10.580;2023-02-23T06:59:35;6.80;99.90
4279;DHT22;2153;47.744;10.580;2023-02-23T07:02:02;6.90;99.90
4279;DHT22;2153;47.744;10.580;2023-02-23T07:04:29;6.90;99.90
4279;DHT22;2153;47.744;10.580;2023-02-23T07:06:55;7.00;99.90
4279;DHT22;2153;47.744;10.580;2023-02-23T07:09:24;7.00;99.90
4279;DHT22;2153;47.744;10.580;2023-02-23T07:11:50;7.10;99.90
4279;DHT22;2153;47.744;10.580;2023-02-23T07:14:17;7.20;99.90
4279;DHT22;2153;47.744;10.580;2023-02-23T07:16:44;7.30;99.90
4279;DHT22;2153;47.744;10.580;2023-02-23T07:19:11;7.30;99.90
4279;DHT22;2153;47.744;10.580;2023-02-23T07:21:37;7.40;99.90
4279;DHT22;2153;47.744;10.580;2023-02-23T07:24:05;7.50;99.90
4279;DHT22;2153;47.744;10.580;2023-02-23T07:26:33;7.50;99.90
4279;DHT22;2153;47.744;10.580;2023-02-23T07:29:00;7.60;99.90
4279;DHT22;2153;47.744;10.580;2023-02-23T07:31:27;7.70;99.90
4279;DHT22;2153;47.744;10.580;2023-02-23T07:33:54;7.70;99.90
4279;DHT22;2153;47.744;10.580;2023-02-23T07:36:21;7.80;99.90
4279;DHT22;2153;47.744;10.580;2023-02-23T07:38:48;7.80;99.90
4279;DHT22;2153;47.744;10.580;2023-02-23T07:41:14;7.90;99.90
4279;DHT22;2153;47.744;10.580;2023-02-23T07:43:43;7.90;99.90
4279;DHT22;2153;47.744;10.580;2023-02-23T07:46:09;7.90;99.90
4279;DHT22;2153;47.744;10.580;2023-02-23T07:48:36;7.90;99.90
4279;DHT22;2153;47.744;10.580;2023-02-23T07:51:08;7.90;99.90
4279;DHT22;2153;47.744;10.580;2023-02-23T07:53:36;8.00;99.90
4279;DHT22;2153;47.744;10.580;2023-02-23T07:56:03;7.90;99.90
4279;DHT22;2153;47.744;10.580;2023-02-23T07:58:30;7.90;99.90
4279;DHT22;2153;47.744;10.580;2023-02-23T08:00:58;7.90;99.90
4279;DHT22;2153;47.744;10.580;2023-02-23T08:03:25;8.00;99.90
4279;DHT22;2153;47.744;10.580;2023-02-23T08:05:51;8.00;99.90
4279;DHT22;2153;47.744;10.580;2023-02-23T08:08:18;8.00;99.90
4279;DHT22;2153;47.744;10.580;2023-02-23T08:10:45;8.00;99.90
4279;DHT22;2153;47.744;10.580;2023-02-23T08:13:13;8.00;99.90
4279;DHT22;2153;47.744;10.580;2023-02-23T08:15:40;8.00;99.90
4279;DHT22;2153;47.744;10.580;2023-02-23T08:18:08;8.00;99.90
4279;DHT22;2153;47.744;10.580;2023-02-23T08:20:35;8.00;99.90
4279;DHT22;2153;47.744;10.580;2023-02-23T08:23:02;8.10;99.90
4279;DHT22;2153;47.744;10.580;2023-02-23T08:25:29;8.10;99.90
4279;DHT22;2153;47.744;10.580;2023-02-23T08:27:56;8.20;99.90
4279;DHT22;2153;47.744;10.580;2023-02-23T08:30:29;8.30;99.90
4279;DHT22;2153;47.744;10.580;2023-02-23T08:32:56;8.50;99.90
4279;DHT22;2153;47.744;10.580;2023-02-23T08:35:24;8.50;99.90
4279;DHT22;2153;47.744;10.580;2023-02-23T08:37:50;8.60;99.90
4279;DHT22;2153;47.744;10.580;2023-02-23T08:40:17;8.60;99.90
4279;DHT22;2153;47.744;10.580;2023-02-23T08:42:45;8.80;99.90
4279;DHT22;2153;47.744;10.580;2023-02-23T08:45:13;9.00;99.90
4279;DHT22;2153;47.744;10.580;2023-02-23T08:47:40;9.20;99.90
4279;DHT22;2153;47.744;10.580;2023-02-23T08:50:07;9.30;99.90
4279;DHT22;2153;47.744;10.580;2023-02-23T08:52:36;9.40;99.90
4279;DHT22;2153;47.744;10.580;2023-02-23T08:55:04;9.80;99.90
4279;DHT22;2153;47.744;10.580;2023-02-23T08:57:31;10.10;99.90
4279;DHT22;2153;47.744;10.580;2023-02-23T08:59:58;10.40;99.90
4279;DHT22;2153;47.744;10.580;2023-02-23T09:02:25;10.70;99.90
4279;DHT22;2153;47.744;10.580;2023-02-23T09:04:51;11.10;99.90
4279;DHT22;2153;47.744;10.580;2023-02-23T09:07:20;11.60;99.90
4279;DHT22;2153;47.744;10.580;2023-02-23T09:09:53;11.50;99.90
4279;DHT22;2153;47.744;10.580;2023-02-23T09:12:20;11.00;99.90
4279;DHT22;2153;47.744;10.580;2023-02-23T09:14:47;10.60;99.90
4279;DHT22;2153;47.744;10.580;2023-02-23T09:17:15;10.60;99.90
4279;DHT22;2153;47.744;10.580;2023-02-23T09:19:42;10.70;99.90
4279;DHT22;2153;47.744;10.580;2023-02-23T09:22:09;10.70;99.90
4279;DHT22;2153;47.744;10.580;2023-02-23T09:24:35;10.60;99.90
4279;DHT22;2153;47.744;10.580;2023-02-23T09:27:04;10.50;99.90
4279;DHT22;2153;47.744;10.580;2023-02-23T09:29:31;10.30;99.90
4279;DHT22;2153;47.744;10.580;2023-02-23T09:31:58;10.30;99.90
4279;DHT22;2153;47.744;10.580;2023-02-23T09:34:25;10.40;99.90
4279;DHT22;2153;47.744;10.580;2023-02-23T09:36:55;10.30;99.90
4279;DHT22;2153;47.744;10.580;2023-02-23T09:39:21;10.30;99.90
4279;DHT22;2153;47.744;10.580;2023-02-23T09:42:22;10.20;99.90
4279;DHT22;2153;47.744;10.580;2023-02-23T09:45:06;10.00;99.90
4279;DHT22;2153;47.744;10.580;2023-02-23T09:47:46;9.90;99.90
4279;DHT22;2153;47.744;10.580;2023-02-23T09:50:19;9.70;99.90
4279;DHT22;2153;47.744;10.580;2023-02-23T09:52:50;9.60;99.90
4279;DHT22;2153;47.744;10.580;2023-02-23T09:55:18;9.50;99.90
4279;DHT22;2153;47.744;10.580;2023-02-23T09:57:47;9.40;99.90
4279;DHT22;2153;47.744;10.580;2023-02-23T10:00:20;9.30;99.90
4279;DHT22;2153;47.744;10.580;2023-02-23T10:03:06;9.30;99.90
4279;DHT22;2153;47.744;10.580;2023-02-23T10:05:38;9.20;99.90
4279;DHT22;2153;47.744;10.580;2023-02-23T10:08:24;9.10;99.90
4279;DHT22;2153;47.744;10.580;2023-02-23T10:11:02;9.00;99.90
4279;DHT22;2153;47.744;10.580;2023-02-23T10:13:37;9.00;99.90
4279;DHT22;2153;47.744;10.580;2023-02-23T10:16:15;9.00;99.90
4279;DHT22;2153;47.744;10.580;2023-02-23T10:18:48;9.20;99.90
4279;DHT22;2153;47.744;10.580;2023-02-23T10:21:22;9.30;99.90
4279;DHT22;2153;47.744;10.580;2023-02-23T10:23:59;9.30;99.90
4279;DHT22;2153;47.744;10.580;2023-02-23T10:26:32;9.40;99.90
4279;DHT22;2153;47.744;10.580;2023-02-23T10:29:01;9.50;99.90
4279;DHT22;2153;47.744;10.580;2023-02-23T10:31:32;9.50;99.90
4279;DHT22;2153;47.744;10.580;2023-02-23T10:34:03;9.30;99.90
4279;DHT22;2153;47.744;10.580;2023-02-23T10:36:35;9.40;99.90
4279;DHT22;2153;47.744;10.580;2023-02-23T10:39:05;9.40;99.90
4279;DHT22;2153;47.744;10.580;2023-02-23T10:41:33;9.30;99.90
4279;DHT22;2153;47.744;10.580;2023-02-23T10:44:03;9.40;99.90
4279;DHT22;2153;47.744;10.580;2023-02-23T10:46:35;9.40;99.90
4279;DHT22;2153;47.744;10.580;2023-02-23T10:49:03;9.30;99.90
4279;DHT22;2153;47.744;10.580;2023-02-23T10:51:35;9.20;99.90
4279;DHT22;2153;47.744;10.580;2023-02-23T10:54:36;9.10;99.90
4279;DHT22;2153;47.744;10.580;2023-02-23T10:57:05;8.80;99.90
4279;DHT22;2153;47.744;10.580;2023-02-23T10:59:34;8.90;99.90
4279;DHT22;2153;47.744;10.580;2023-02-23T11:02:15;9.10;99.90
4279;DHT22;2153;47.744;10.580;2023-02-23T11:04:51;9.00;99.90
4279;DHT22;2153;47.744;10.580;2023-02-23T11:07:21;8.60;99.90
4279;DHT22;2153;47.744;10.580;2023-02-23T11:09:48;8.70;99.90
4279;DHT22;2153;47.744;10.580;2023-02-23T11:12:18;8.60;99.90
4279;DHT22;2153;47.744;10.580;2023-02-23T11:14:49;8.60;99.90
4279;DHT22;2153;47.744;10.580;2023-02-23T11:17:28;8.70;99.90
4279;DHT22;2153;47.744;10.580;2023-02-23T11:20:00;8.70;99.90
4279;DHT22;2153;47.744;10.580;2023-02-23T11:22:31;8.90;99.90
4279;DHT22;2153;47.744;10.580;2023-02-23T11:25:00;8.90;99.90
4279;DHT22;2153;47.744;10.580;2023-02-23T11:27:28;8.90;99.90
4279;DHT22;2153;47.744;10.580;2023-02-23T11:29:57;9.00;99.90
4279;DHT22;2153;47.744;10.580;2023-02-23T11:32:32;9.00;99.90
4279;DHT22;2153;47.744;10.580;2023-02-23T11:35:24;9.10;99.90
4279;DHT22;2153;47.744;10.580;2023-02-23T11:37:53;9.20;99.90
4279;DHT22;2153;47.744;10.580;2023-02-23T11:40:23;9.20;99.90
4279;DHT22;2153;47.744;10.580;2023-02-23T11:42:52;9.30;99.90
4279;DHT22;2153;47.744;10.580;2023-02-23T11:45:21;9.40;99.90
4279;DHT22;2153;47.744;10.580;2023-02-23T11:47:51;9.50;99.90
4279;DHT22;2153;47.744;10.580;2023-02-23T11:50:25;9.50;99.90
4279;DHT22;2153;47.744;10.580;2023-02-23T11:52:56;9.70;99.90
4279;DHT22;2153;47.744;10.580;2023-02-23T11:55:25;9.70;99.90
4279;DHT22;2153;47.744;10.580;2023-02-23T11:58:07;9.50;99.90
4279;DHT22;2153;47.744;10.580;2023-02-23T12:00:35;9.50;99.90
4279;DHT22;2153;47.744;10.580;2023-02-23T12:03:02;9.50;99.90
4279;DHT22;2153;47.744;10.580;2023-02-23T12:05:30;9.70;99.90
4279;DHT22;2153;47.744;10.580;2023-02-23T12:08:01;9.80;99.90
4279;DHT22;2153;47.744;10.580;2023-02-23T12:10:33;10.00;99.90
4279;DHT22;2153;47.744;10.580;2023-02-23T12:13:11;10.00;99.90
4279;DHT22;2153;47.744;10.580;2023-02-23T12:15:47;10.10;99.90
4279;DHT22;2153;47.744;10.580;2023-02-23T12:18:33;10.30;99.90
4279;DHT22;2153;47.744;10.580;2023-02-23T12:21:12;10.40;99.90
4279;DHT22;2153;47.744;10.580;2023-02-23T12:23:41;10.50;99.90
4279;DHT22;2153;47.744;10.580;2023-02-23T12:26:16;10.40;99.90
4279;DHT22;2153;47.744;10.580;2023-02-23T12:28:49;10.30;99.90
4279;DHT22;2153;47.744;10.580;2023-02-23T12:31:23;10.40;99.90
4279;DHT22;2153;47.744;10.580;2023-02-23T12:33:56;10.50;99.90
4279;DHT22;2153;47.744;10.580;2023-02-23T12:36:29;10.70;99.90
4279;DHT22;2153;47.744;10.580;2023-02-23T12:39:02;11.00;99.90
4279;DHT22;2153;47.744;10.580;2023-02-23T12:41:35;11.00;99.90
4279;DHT22;2153;47.744;10.580;2023-02-23T12:44:10;11.30;99.90
4279;DHT22;2153;47.744;10.580;2023-02-23T12:46:45;11.50;99.90
4279;DHT22;2153;47.744;10.580;2023-02-23T12:49:20;11.70;99.90
4279;DHT22;2153;47.744;10.580;2023-02-23T12:51:52;11.60;99.90
4279;DHT22;2153;47.744;10.580;2023-02-23T12:54:19;11.50;99.90
4279;DHT22;2153;47.744;10.580;2023-02-23T12:56:55;11.40;99.90
4279;DHT22;2153;47.744;10.580;2023-02-23T13:02:21;11.60;99.90
4279;DHT22;2153;47.744;10.580;2023-02-23T13:05:15;11.90;99.90
4279;DHT22;2153;47.744;10.580;2023-02-23T13:07:57;11.80;99.90
4279;DHT22;2153;47.744;10.580;2023-02-23T13:10:31;12.20;99.90
4279;DHT22;2153;47.744;10.580;2023-02-23T13:13:11;12.70;99.90
4279;DHT22;2153;47.744;10.580;2023-02-23T13:15:49;12.60;99.90
4279;DHT22;2153;47.744;10.580;2023-02-23T13:18:24;12.50;99.90
4279;DHT22;2153;47.744;10.580;2023-02-23T13:20:55;11.90;99.90
4279;DHT22;2153;47.744;10.580;2023-02-23T13:23:27;12.10;99.90
4279;DHT22;2153;47.744;10.580;2023-02-23T13:26:03;12.50;99.90
4279;DHT22;2153;47.744;10.580;2023-02-23T13:28:42;12.80;99.90
4279;DHT22;2153;47.744;10.580;2023-02-23T13:31:18;12.90;99.90
4279;DHT22;2153;47.744;10.580;2023-02-23T13:33:49;12.80;99.90
4279;DHT22;2153;47.744;10.580;2023-02-23T13:36:16;12.40;99.90
4279;DHT22;2153;47.744;10.580;2023-02-23T13:38:58;12.40;99.90
4279;DHT22;2153;47.744;10.580;2023-02-23T13:41:38;12.00;99.90
4279;DHT22;2153;47.744;10.580;2023-02-23T13:44:10;12.00;99.90
4279;DHT22;2153;47.744;10.580;2023-02-23T13:46:46;12.00;99.90
4279;DHT22;2153;47.744;10.580;2023-02-23T13:49:22;11.90;99.90
4279;DHT22;2153;47.744;10.580;2023-02-23T13:51:56;12.00;99.90
4279;DHT22;2153;47.744;10.580;2023-02-23T13:54:30;12.00;99.90
4279;DHT22;2153;47.744;10.580;2023-02-23T13:56:58;12.10;99.90
4279;DHT22;2153;47.744;10.580;2023-02-23T13:59:28;12.00;99.90
4279;DHT22;2153;47.744;10.580;2023-02-23T14:01:55;11.70;99.90
4279;DHT22;2153;47.744;10.580;2023-02-23T14:04:25;11.60;99.90
4279;DHT22;2153;47.744;10.580;2023-02-23T14:06:54;11.50;99.90
4279;DHT22;2153;47.744;10.580;2023-02-23T14:09:28;11.40;99.90
4279;DHT22;2153;47.744;10.580;2023-02-23T14:12:02;11.30;99.90
4279;DHT22;2153;47.744;10.580;2023-02-23T14:14:40;11.40;99.90
4279;DHT22;2153;47.744;10.580;2023-02-23T14:20:37;11.00;99.90
4279;DHT22;2153;47.744;10.580;2023-02-23T14:23:27;11.10;99.90
4279;DHT22;2153;47.744;10.580;2023-02-23T14:26:13;11.40;99.90
4279;DHT22;2153;47.744;10.580;2023-02-23T14:28:41;11.60;99.90
4279;DHT22;2153;47.744;10.580;2023-02-23T14:31:17;12.10;99.90
4279;DHT22;2153;47.744;10.580;2023-02-23T14:33:53;12.60;99.90
4279;DHT22;2153;47.744;10.580;2023-02-23T14:36:42;12.60;99.90
4279;DHT22;2153;47.744;10.580;2023-02-23T14:39:15;12.60;99.90
4279;DHT22;2153;47.744;10.580;2023-02-23T14:41:47;12.60;99.90
4279;DHT22;2153;47.744;10.580;2023-02-23T14:44:17;12.80;99.90
4279;DHT22;2153;47.744;10.580;2023-02-23T14:46:48;13.20;99.90
4279;DHT22;2153;47.744;10.580;2023-02-23T14:49:19;13.20;99.90
4279;DHT22;2153;47.744;10.580;2023-02-23T14:51:50;13.30;99.90
4279;DHT22;2153;47.744;10.580;2023-02-23T14:54:26;13.10;99.90
4279;DHT22;2153;47.744;10.580;2023-02-23T14:56:56;13.20;99.90
4279;DHT22;2153;47.744;10.580;2023-02-23T14:59:25;13.30;99.90
4279;DHT22;2153;47.744;10.580;2023-02-23T15:01:53;13.50;99.90
4279;DHT22;2153;47.744;10.580;2023-02-23T15:04:22;13.50;99.90
4279;DHT22;2153;47.744;10.580;2023-02-23T15:06:52;13.50;99.90
4279;DHT22;2153;47.744;10.580;2023-02-23T15:09:28;13.40;99.90
4279;DHT22;2153;47.744;10.580;2023-02-23T15:11:58;13.50;99.90
4279;DHT22;2153;47.744;10.580;2023-02-23T15:14:34;13.40;99.90
4279;DHT22;2153;47.744;10.580;2023-02-23T15:17:02;13.40;99.90
4279;DHT22;2153;47.744;10.580;2023-02-23T15:19:31;13.10;99.90
4279;DHT22;2153;47.744;10.580;2023-02-23T15:22:02;12.70;99.90
4279;DHT22;2153;47.744;10.580;2023-02-23T15:24:32;12.60;99.90
4279;DHT22;2153;47.744;10.580;2023-02-23T15:27:05;12.60;99.90
4279;DHT22;2153;47.744;10.580;2023-02-23T15:29:40;12.50;99.90
4279;DHT22;2153;47.744;10.580;2023-02-23T15:32:16;12.50;99.90
4279;DHT22;2153;47.744;10.580;2023-02-23T15:34:43;12.50;99.90
4279;DHT22;2153;47.744;10.580;2023-02-23T15:37:16;12.50;99.90
4279;DHT22;2153;47.744;10.580;2023-02-23T15:39:47;12.50;99.90
4279;DHT22;2153;47.744;10.580;2023-02-23T15:42:21;12.50;99.90
4279;DHT22;2153;47.744;10.580;2023-02-23T15:44:57;12.50;99.90
4279;DHT22;2153;47.744;10.580;2023-02-23T15:47:30;12.40;99.90
4279;DHT22;2153;47.744;10.580;2023-02-23T15:50:02;12.40;99.90
4279;DHT22;2153;47.744;10.580;2023-02-23T15:52:33;12.20;99.90
4279;DHT22;2153;47.744;10.580;2023-02-23T15:55:07;12.10;99.90
4279;DHT22;2153;47.744;10.580;2023-02-23T15:57:44;11.90;99.90
4279;DHT22;2153;47.744;10.580;2023-02-23T16:00:16;11.70;99.90
4279;DHT22;2153;47.744;10.580;2023-02-23T16:02:47;11.60;99.90
4279;DHT22;2153;47.744;10.580;2023-02-23T16:05:19;11.70;99.90
4279;DHT22;2153;47.744;10.580;2023-02-23T16:07:53;11.70;99.90
4279;DHT22;2153;47.744;10.580;2023-02-23T16:10:39;11.60;99.90
4279;DHT22;2153;47.744;10.580;2023-02-23T16:13:08;11.50;99.90
4279;DHT22;2153;47.744;10.580;2023-02-23T16:15:38;11.30;99.90
4279;DHT22;2153;47.744;10.580;2023-02-23T16:18:10;11.20;99.90
4279;DHT22;2153;47.744;10.580;2023-02-23T16:20:42;11.10;99.90
4279;DHT22;2153;47.744;10.580;2023-02-23T16:23:18;10.90;99.90
4279;DHT22;2153;47.744;10.580;2023-02-23T16:25:52;10.70;99.90
4279;DHT22;2153;47.744;10.580;2023-02-23T16:28:20;10.40;99.90
4279;DHT22;2153;47.744;10.580;2023-02-23T16:30:55;10.30;99.90
4279;DHT22;2153;47.744;10.580;2023-02-23T16:33:24;10.10;99.90
4279;DHT22;2153;47.744;10.580;2023-02-23T16:35:53;10.00;99.90
4279;DHT22;2153;47.744;10.580;2023-02-23T16:38:35;9.90;99.90
4279;DHT22;2153;47.744;10.580;2023-02-23T16:41:02;9.70;99.90
4279;DHT22;2153;47.744;10.580;2023-02-23T16:43:29;9.60;99.90
4279;DHT22;2153;47.744;10.580;2023-02-23T16:45:59;9.40;99.90
4279;DHT22;2153;47.744;10.580;2023-02-23T16:48:26;9.20;99.90